Terminal Aerodrome Forecast
Issued by NWS St Louis, MO

Home | Current Version | Previous Version | Graphics & Text | Print | Product List | Glossary On
Versions: 1 2 3 4 5 6 7 8 9 10 11 12 13 14 15 16 17 18 19 20 21 22 23 24 25 26 27 28 29 30 31 32 33
688
FTUS43 KLSX 051906 AAA
TAFSTL
TAF AMD
KSTL 051906Z 0519/0624 16008KT P6SM SCT014 BKN250
      TEMPO 0519/0523 BKN014
     FM060600 09005KT P6SM VCSH BKN015
     FM061200 31005KT 6SM BR BKN015
     FM061700 31012KT P6SM BKN035=

USA.gov is the U.S. government's official web portal to all federal, state and local government web resources and services.